Time;durP1;ratioP1;P1;durP2;ratioP2;P2;SDS_P1;SDS_P2;PMS_P1;PMS_P2;Temp;Humidity;BMP_temperature;BMP_pressure;BME280_temperature;BME280_humidity;BME280_pressure;Samples;Min_cycle;Max_cycle;Signal;HPM_P1;HPM_P2
2021/12/29 00:01:46;;;;;;;42.13;27.63;;;;;;;4.94;63.86;100922.00;5050569;28;20918;-69
2021/12/29 00:04:13;;;;;;;49.75;30.10;;;;;;;5.18;64.03;100913.69;5033002;28;20879;-66
2021/12/29 00:06:40;;;;;;;49.83;29.88;;;;;;;5.09;64.17;100917.69;5051884;28;20417;-66
2021/12/29 00:09:09;;;;;;;48.55;29.88;;;;;;;5.15;64.26;100911.22;5052174;28;20495;-66
2021/12/29 00:11:38;;;;;;;52.23;32.00;;;;;;;5.18;63.89;100911.06;5051847;28;20405;-66
2021/12/29 00:14:06;;;;;;;56.35;32.20;;;;;;;5.32;63.58;100918.16;5051762;28;20436;-67
2021/12/29 00:16:35;;;;;;;56.55;32.83;;;;;;;5.14;63.69;100914.78;5051560;28;20417;-66
2021/12/29 00:19:02;;;;;;;60.33;34.50;;;;;;;5.16;64.08;100908.50;5051676;28;20496;-66
2021/12/29 00:21:29;;;;;;;56.78;33.95;;;;;;;5.18;63.93;100911.06;5051626;28;20910;-66
2021/12/29 00:23:59;;;;;;;51.85;32.03;;;;;;;5.13;63.96;100905.19;5051840;28;20412;-67
2021/12/29 00:26:28;;;;;;;51.60;31.10;;;;;;;5.10;63.76;100913.28;5051561;28;20413;-66
2021/12/29 00:28:58;;;;;;;52.97;32.23;;;;;;;5.18;63.89;100906.63;5051558;28;20405;-66
2021/12/29 00:31:25;;;;;;;51.03;31.50;;;;;;;5.48;63.39;100905.81;5051802;28;20409;-66
2021/12/29 00:33:52;;;;;;;48.88;29.42;;;;;;;5.15;63.55;100903.34;5051514;28;20511;-67
2021/12/29 00:36:20;;;;;;;53.03;31.17;;;;;;;5.01;64.54;100901.53;5051414;28;20446;-66
2021/12/29 00:38:47;;;;;;;51.97;29.33;;;;;;;4.82;65.09;100904.31;5053013;28;20417;-66
2021/12/29 00:41:15;;;;;;;56.25;30.58;;;;;;;5.01;64.96;100902.34;5051296;28;20415;-66
2021/12/29 00:43:44;;;;;;;51.50;28.42;;;;;;;5.04;64.70;100906.59;5051332;28;20907;-66
2021/12/29 00:46:12;;;;;;;55.57;29.90;;;;;;;4.83;65.10;100911.28;5051508;28;20921;-66
2021/12/29 00:48:42;;;;;;;56.55;30.60;;;;;;;4.86;64.95;100905.84;5051575;28;20420;-66
2021/12/29 00:51:10;;;;;;;45.43;26.43;;;;;;;4.92;64.71;100899.41;5051449;28;20439;-66
2021/12/29 00:53:38;;;;;;;48.58;28.08;;;;;;;4.85;64.79;100898.91;5051066;28;20448;-66
2021/12/29 00:56:06;;;;;;;48.50;28.45;;;;;;;4.75;64.99;100892.47;5051364;28;20444;-67
2021/12/29 00:58:34;;;;;;;54.43;30.80;;;;;;;4.86;65.00;100894.50;5050995;28;20423;-66
2021/12/29 01:01:04;;;;;;;54.25;29.77;;;;;;;4.68;65.75;100893.72;5050960;28;20416;-66
2021/12/29 01:03:31;;;;;;;56.47;30.35;;;;;;;4.74;65.50;100896.03;5029221;28;20409;-66
2021/12/29 01:05:58;;;;;;;51.90;28.88;;;;;;;4.69;65.93;100900.69;5051230;28;20512;-66
2021/12/29 01:08:25;;;;;;;50.13;28.40;;;;;;;4.92;64.73;100900.25;5050797;28;20507;-66
2021/12/29 01:10:52;;;;;;;52.70;29.40;;;;;;;4.98;64.72;100896.44;5049999;28;20415;-67
2021/12/29 01:13:19;;;;;;;55.10;28.90;;;;;;;4.87;64.92;100893.56;5049777;28;20417;-67
2021/12/29 01:15:58;;;;;;;53.47;29.80;;;;;;;4.91;65.05;100893.31;5049920;28;20428;-66
2021/12/29 01:18:27;;;;;;;57.00;31.92;;;;;;;4.97;65.31;100892.97;5049627;28;20421;-66
2021/12/29 01:20:56;;;;;;;44.80;26.50;;;;;;;5.20;64.22;100889.00;5049682;28;20503;-66
2021/12/29 01:23:23;;;;;;;51.10;29.27;;;;;;;5.12;64.51;100890.41;5049880;28;20491;-67
2021/12/29 01:25:50;;;;;;;48.22;28.40;;;;;;;5.00;64.79;100877.03;5049846;28;20439;-66
2021/12/29 01:28:17;;;;;;;50.17;30.25;;;;;;;4.94;64.61;100877.38;5049027;28;20416;-67
2021/12/29 01:30:44;;;;;;;48.30;28.40;;;;;;;4.75;65.01;100874.09;5049442;28;20539;-66
2021/12/29 01:33:11;;;;;;;65.20;34.50;;;;;;;4.98;64.96;100867.53;5050297;28;20945;-66
2021/12/29 01:35:41;;;;;;;71.50;38.73;;;;;;;5.13;64.27;100868.44;5050463;28;20428;-67
2021/12/29 01:38:09;;;;;;;59.65;35.83;;;;;;;4.84;65.05;100868.31;5050251;28;20941;-66
2021/12/29 01:40:37;;;;;;;53.95;32.20;;;;;;;5.06;64.89;100869.75;5050434;28;20409;-66
2021/12/29 01:43:05;;;;;;;50.55;29.80;;;;;;;5.18;64.43;100863.78;5050359;28;20405;-66
2021/12/29 01:45:32;;;;;;;48.67;27.55;;;;;;;4.94;64.83;100872.13;5050427;28;20435;-66
2021/12/29 01:48:00;;;;;;;44.78;26.67;;;;;;;4.99;64.41;100867.47;5049724;28;20474;-66
2021/12/29 01:50:29;;;;;;;42.58;25.50;;;;;;;4.90;64.69;100865.34;5050294;28;20422;-66
2021/12/29 01:53:02;;;;;;;44.45;26.40;;;;;;;4.92;64.85;100858.22;5049914;28;20879;-66
2021/12/29 01:55:31;;;;;;;46.85;25.17;;;;;;;4.71;65.53;100854.22;5050465;28;20534;-67
2021/12/29 01:57:58;;;;;;;47.55;28.27;;;;;;;5.01;64.68;100851.63;5050120;28;20507;-66
2021/12/29 02:00:29;;;;;;;51.58;29.60;;;;;;;5.01;64.60;100851.63;5049690;28;20441;-66
2021/12/29 02:02:56;;;;;;;50.47;29.88;;;;;;;5.17;64.32;100854.19;5033607;28;20412;-67
2021/12/29 02:05:23;;;;;;;55.65;29.08;;;;;;;5.17;64.14;100849.81;5049586;28;20408;-66
2021/12/29 02:07:50;;;;;;;55.70;30.08;;;;;;;5.22;64.48;100852.16;5049317;28;20866;-66
2021/12/29 02:10:20;;;;;;;59.25;30.77;;;;;;;5.40;63.58;100847.63;5049609;28;20420;-66
2021/12/29 02:12:47;;;;;;;48.77;27.40;;;;;;;5.27;64.68;100844.00;5049784;28;20497;-67
2021/12/29 02:15:14;;;;;;;44.95;26.05;;;;;;;5.25;64.04;100852.00;5049435;28;20918;-66
2021/12/29 02:17:41;;;;;;;44.53;25.83;;;;;;;5.15;64.31;100849.06;5049507;28;20448;-66
2021/12/29 02:20:12;;;;;;;48.42;28.17;;;;;;;5.26;63.87;100851.03;5049745;28;20444;-66
2021/12/29 02:22:44;;;;;;;46.37;26.77;;;;;;;5.42;63.74;100856.25;5049704;28;20450;-66
2021/12/29 02:25:32;;;;;;;41.33;25.30;;;;;;;5.27;63.86;100855.38;5049366;28;20419;-66
2021/12/29 02:28:02;;;;;;;40.78;24.80;;;;;;;5.26;63.81;100855.47;5049666;28;20861;-66
2021/12/29 02:30:29;;;;;;;44.63;28.75;;;;;;;5.59;63.03;100855.25;5049650;28;20424;-66
2021/12/29 02:33:00;;;;;;;47.67;29.75;;;;;;;5.95;62.17;100846.09;5049228;28;20416;-66
2021/12/29 02:35:29;;;;;;;41.17;26.67;;;;;;;5.83;62.16;100845.88;5049168;28;20428;-66
2021/12/29 02:37:57;;;;;;;36.78;24.25;;;;;;;5.69;62.37;100845.03;5049297;28;20495;-67
2021/12/29 02:40:24;;;;;;;35.55;23.00;;;;;;;5.44;62.96;100837.78;5049223;28;20409;-66
2021/12/29 02:42:51;;;;;;;39.80;24.27;;;;;;;5.59;62.74;100839.47;5049228;28;20413;-66
2021/12/29 02:45:22;;;;;;;39.45;25.63;;;;;;;5.37;63.12;100832.88;5049234;28;20412;-66
2021/12/29 02:47:49;;;;;;;42.92;25.88;;;;;;;5.24;63.59;100821.41;5049054;28;20479;-67
2021/12/29 02:50:18;;;;;;;47.78;27.58;;;;;;;5.07;64.20;100821.53;5049137;28;20418;-66
2021/12/29 02:52:47;;;;;;;43.58;26.27;;;;;;;4.99;64.60;100822.84;5049343;28;20412;-66
2021/12/29 02:55:15;;;;;;;46.40;26.08;;;;;;;5.02;64.76;100824.44;5049084;28;20519;-66
2021/12/29 02:57:43;;;;;;;48.40;26.53;;;;;;;5.07;64.54;100825.03;5049045;28;20412;-66
2021/12/29 03:00:14;;;;;;;41.63;25.65;;;;;;;4.90;65.03;100820.72;5049342;28;20504;-66
2021/12/29 03:02:41;;;;;;;47.25;24.92;;;;;;;4.84;65.31;100815.81;5034521;28;20491;-66
2021/12/29 03:05:08;;;;;;;45.00;24.92;;;;;;;4.92;65.35;100815.38;5049028;28;20405;-66
2021/12/29 03:07:35;;;;;;;40.40;23.57;;;;;;;4.88;65.13;100813.88;5048907;28;20918;-66
2021/12/29 03:10:04;;;;;;;38.58;22.98;;;;;;;4.78;65.34;100809.13;5049011;28;20918;-66
2021/12/29 03:12:31;;;;;;;39.03;23.88;;;;;;;4.82;65.24;100813.31;5048951;28;20415;-66
2021/12/29 03:14:58;;;;;;;38.10;23.42;;;;;;;4.80;65.21;100809.91;5049143;28;20509;-66
2021/12/29 03:17:25;;;;;;;40.03;24.75;;;;;;;5.00;64.79;100806.13;5048938;28;20420;-67
2021/12/29 03:19:53;;;;;;;41.10;25.00;;;;;;;4.90;65.34;100797.09;5048880;28;20419;-66
2021/12/29 03:22:20;;;;;;;37.15;24.02;;;;;;;5.00;64.94;100797.41;5049211;28;20413;-67
2021/12/29 03:24:47;;;;;;;39.03;24.40;;;;;;;4.96;64.51;100806.41;5048914;28;20427;-66
2021/12/29 03:27:15;;;;;;;34.30;21.70;;;;;;;4.62;65.23;100805.69;5048762;28;20499;-66
2021/12/29 03:29:42;;;;;;;35.00;21.95;;;;;;;4.60;65.45;100803.19;5049079;28;20444;-66
2021/12/29 03:32:20;;;;;;;34.13;21.65;;;;;;;4.74;65.25;100805.00;5048961;28;20413;-66
2021/12/29 03:34:47;;;;;;;31.92;20.15;;;;;;;4.82;64.59;100801.94;5048892;28;20493;-66
2021/12/29 03:37:14;;;;;;;24.40;17.50;;;;;;;4.91;64.33;100801.44;5049009;28;20416;-66
2021/12/29 03:39:41;;;;;;;25.85;16.55;;;;;;;4.86;64.36;100807.88;5048653;28;20417;-68
2021/12/29 03:42:08;;;;;;;30.38;20.52;;;;;;;4.81;64.62;100808.97;5048690;28;20419;-66
2021/12/29 03:44:36;;;;;;;31.80;21.10;;;;;;;4.69;64.87;100795.72;5048968;28;20413;-66
2021/12/29 03:47:04;;;;;;;33.03;22.75;;;;;;;4.54;65.41;100790.41;5048797;28;20417;-66
2021/12/29 03:49:31;;;;;;;30.52;20.25;;;;;;;4.42;66.19;100788.47;5048897;28;20423;-66
2021/12/29 03:51:58;;;;;;;32.85;20.55;;;;;;;4.51;66.19;100789.72;5049063;28;20500;-66
2021/12/29 03:54:25;;;;;;;34.47;21.65;;;;;;;4.83;65.27;100803.66;5052173;28;20838;-66
2021/12/29 03:56:52;;;;;;;35.70;22.02;;;;;;;4.91;64.83;100803.22;5052154;28;20919;-66
2021/12/29 03:59:19;;;;;;;37.78;20.92;;;;;;;5.14;64.38;100805.31;5052157;28;20408;-66
2021/12/29 04:01:50;;;;;;;34.05;20.13;;;;;;;4.98;64.41;100802.75;5050378;28;20778;-68
2021/12/29 04:04:17;;;;;;;34.10;21.25;;;;;;;4.94;64.44;100798.59;5040203;28;20463;-66
2021/12/29 04:06:44;;;;;;;32.53;19.27;;;;;;;4.77;64.94;100793.50;5051997;28;20428;-66
2021/12/29 04:09:11;;;;;;;33.70;19.10;;;;;;;4.57;65.76;100790.22;5052245;28;20420;-66
2021/12/29 04:11:38;;;;;;;37.42;20.50;;;;;;;4.55;66.12;100786.84;5051959;28;20508;-66
2021/12/29 04:14:05;;;;;;;31.63;18.67;;;;;;;4.49;65.95;100781.94;5052413;28;20491;-67
2021/12/29 04:16:36;;;;;;;29.05;17.25;;;;;;;4.49;66.26;100779.31;5052032;28;20428;-66
2021/12/29 04:19:14;;;;;;;34.03;20.27;;;;;;;4.78;65.54;100798.63;5051780;28;20507;-66
2021/12/29 04:21:43;;;;;;;31.42;19.08;;;;;;;4.85;64.86;100796.53;5051739;28;20775;-66
2021/12/29 04:24:11;;;;;;;25.75;16.75;;;;;;;4.81;65.06;100787.13;5051659;28;20790;-66
2021/12/29 04:26:39;;;;;;;24.27;15.90;;;;;;;4.57;65.73;100784.97;5051726;28;20413;-66
2021/12/29 04:29:06;;;;;;;28.55;17.15;;;;;;;4.67;65.83;100802.84;5051545;28;20446;-66
2021/12/29 04:31:34;;;;;;;29.58;18.13;;;;;;;4.95;65.25;100809.97;5051747;28;20412;-66
2021/12/29 04:34:01;;;;;;;29.35;17.83;;;;;;;5.08;64.64;100804.84;5051833;28;20447;-66
2021/12/29 04:36:29;;;;;;;28.30;18.40;;;;;;;4.80;65.10;100796.78;5051430;28;20508;-66
2021/12/29 04:38:58;;;;;;;27.85;19.15;;;;;;;4.83;65.16;100790.53;5051347;28;20491;-66
2021/12/29 04:41:25;;;;;;;27.73;17.27;;;;;;;4.62;66.08;100787.31;5051599;28;20471;-66
2021/12/29 04:43:52;;;;;;;27.02;16.83;;;;;;;4.43;66.39;100777.03;5051573;28;20419;-66
2021/12/29 04:46:26;;;;;;;33.42;21.50;;;;;;;4.72;65.99;100777.16;5050775;28;20423;-66
2021/12/29 04:48:59;;;;;;;30.02;17.83;;;;;;;4.83;65.30;100785.28;5051483;28;20428;-66
2021/12/29 04:51:34;;;;;;;23.90;14.95;;;;;;;4.82;65.43;100780.94;5051578;28;20427;-66
2021/12/29 04:54:04;;;;;;;24.05;15.25;;;;;;;4.74;65.58;100796.28;5051157;28;20863;-66
2021/12/29 04:56:31;;;;;;;24.70;15.57;;;;;;;4.77;65.54;100796.13;5050990;28;20459;-66
2021/12/29 04:58:58;;;;;;;25.95;16.10;;;;;;;4.91;65.45;100788.31;5051246;28;20492;-66
2021/12/29 05:01:25;;;;;;;22.38;14.93;;;;;;;4.64;65.85;100789.88;5051038;28;20783;-66
2021/12/29 05:03:53;;;;;;;22.38;14.90;;;;;;;4.71;65.60;100789.44;5034100;28;20474;-66
2021/12/29 05:09:06;;;;;;;22.70;13.90;;;;;;;4.70;65.55;100789.53;5051068;28;20411;-66
2021/12/29 05:11:33;;;;;;;23.25;15.27;;;;;;;4.58;66.04;100786.69;5051363;28;20427;-66
2021/12/29 05:14:00;;;;;;;24.47;15.00;;;;;;;4.69;65.80;100793.09;5051249;28;20417;-65
2021/12/29 05:16:28;;;;;;;26.40;15.45;;;;;;;4.57;66.21;100784.97;5050941;28;20521;-67
2021/12/29 05:18:56;;;;;;;22.55;15.32;;;;;;;4.53;66.27;100787.88;5051042;28;20467;-67
2021/12/29 05:21:25;;;;;;;24.90;15.30;;;;;;;4.34;66.65;100788.03;5050836;28;20412;-67
2021/12/29 05:23:52;;;;;;;29.00;17.13;;;;;;;4.48;67.21;100782.88;5050862;28;20511;-66
2021/12/29 05:26:20;;;;;;;28.42;17.55;;;;;;;4.61;66.85;100783.88;5050924;28;20409;-65
2021/12/29 05:28:47;;;;;;;26.10;16.55;;;;;;;4.53;66.63;100793.94;5050519;28;20911;-65
2021/12/29 05:31:14;;;;;;;29.10;17.70;;;;;;;4.68;66.81;100786.13;5050398;28;20413;-65
2021/12/29 05:33:41;;;;;;;32.47;17.50;;;;;;;4.96;65.77;100790.66;5049416;28;20764;-66
2021/12/29 05:36:08;;;;;;;30.27;17.98;;;;;;;5.00;65.58;100800.88;5048880;28;20511;-66
2021/12/29 05:38:35;;;;;;;30.80;17.75;;;;;;;4.92;65.48;100795.22;5048748;28;20515;-66
2021/12/29 05:41:02;;;;;;;25.45;15.38;;;;;;;4.80;66.03;100793.31;5049664;28;20467;-65
2021/12/29 05:43:31;;;;;;;29.48;17.02;;;;;;;4.98;65.59;100796.66;5050162;28;20865;-66
2021/12/29 05:45:58;;;;;;;23.33;14.90;;;;;;;4.88;65.53;100812.09;5050303;28;20405;-65
2021/12/29 05:48:25;;;;;;;29.45;17.40;;;;;;;4.95;65.62;100809.97;5050506;28;20420;-65
2021/12/29 05:50:51;;;;;;;29.35;20.15;;;;;;;4.96;65.50;100802.00;5050096;28;20428;-66
2021/12/29 05:53:18;;;;;;;36.72;24.77;;;;;;;4.99;65.28;100817.56;5049678;28;20903;-65
2021/12/29 05:55:45;;;;;;;24.13;15.50;;;;;;;4.97;65.51;100813.38;5048207;28;20511;-66
2021/12/29 05:58:12;;;;;;;20.45;13.55;;;;;;;4.84;65.69;100813.19;5049711;28;20456;-65
2021/12/29 06:00:41;;;;;;;21.77;13.97;;;;;;;4.91;65.63;100809.31;5049826;28;20515;-66
2021/12/29 06:03:09;;;;;;;18.38;12.23;;;;;;;4.76;65.75;100821.50;5049803;28;20416;-66
2021/12/29 06:05:36;;;;;;;20.90;13.77;;;;;;;4.86;65.58;100823.63;5050060;28;20413;-65
2021/12/29 06:08:03;;;;;;;18.83;13.05;;;;;;;5.08;65.28;100825.84;5032239;28;20932;-65
2021/12/29 06:10:31;;;;;;;20.13;13.70;;;;;;;4.92;65.77;100824.09;5050225;28;20416;-65
2021/12/29 06:12:58;;;;;;;22.80;14.45;;;;;;;4.95;65.80;100831.81;5049779;28;20408;-66
2021/12/29 06:15:24;;;;;;;23.23;15.13;;;;;;;4.93;65.92;100830.22;5048946;28;20435;-65
2021/12/29 06:17:53;;;;;;;20.25;13.85;;;;;;;4.88;66.17;100838.34;5049714;28;20440;-66
2021/12/29 06:20:21;;;;;;;21.45;14.88;;;;;;;4.95;65.73;100833.59;5049957;28;20404;-66
2021/12/29 06:22:48;;;;;;;23.00;16.58;;;;;;;4.86;65.97;100836.75;5049982;28;20416;-65
2021/12/29 06:25:18;;;;;;;24.13;16.13;;;;;;;5.00;65.72;100845.50;5049407;28;20512;-65
2021/12/29 06:27:45;;;;;;;23.63;15.13;;;;;;;4.88;66.26;100845.38;5049595;28;20441;-65
2021/12/29 06:30:15;;;;;;;22.30;15.80;;;;;;;4.86;66.34;100842.84;5049566;28;20499;-66
2021/12/29 06:32:43;;;;;;;21.30;15.17;;;;;;;4.88;66.12;100840.13;5049526;28;20481;-65
2021/12/29 06:35:14;;;;;;;18.20;12.10;;;;;;;4.92;66.02;100846.91;5049669;28;20419;-65
2021/12/29 06:37:42;;;;;;;18.92;12.63;;;;;;;4.88;66.15;100840.97;5049345;28;20428;-66
2021/12/29 06:40:10;;;;;;;20.30;13.55;;;;;;;4.84;66.23;100841.25;5049366;28;20864;-66
2021/12/29 06:42:37;;;;;;;23.52;15.13;;;;;;;4.76;66.49;100847.75;5049471;28;20496;-65
2021/12/29 06:45:05;;;;;;;24.98;15.00;;;;;;;4.80;66.69;100843.19;5049645;28;20416;-65
2021/12/29 06:47:32;;;;;;;23.17;14.93;;;;;;;4.77;66.25;100848.63;5049424;28;20961;-66
2021/12/29 06:50:00;;;;;;;25.10;15.32;;;;;;;4.72;66.45;100845.41;5049575;28;20505;-66
2021/12/29 06:52:28;;;;;;;34.25;21.50;;;;;;;4.95;66.37;100849.34;5049380;28;20462;-65
2021/12/29 06:54:55;;;;;;;36.70;21.17;;;;;;;5.04;65.92;100845.34;5049075;28;20492;-65
2021/12/29 06:57:22;;;;;;;30.40;19.00;;;;;;;4.74;66.53;100848.78;5049231;28;20520;-65
2021/12/29 06:59:49;;;;;;;33.75;21.63;;;;;;;4.79;66.79;100849.38;5049025;28;20412;-65
2021/12/29 07:02:16;;;;;;;39.28;24.25;;;;;;;4.88;66.27;100850.63;5049279;28;20926;-65
2021/12/29 07:04:44;;;;;;;37.10;21.30;;;;;;;4.69;67.36;100853.47;5048846;28;20405;-65
2021/12/29 07:07:11;;;;;;;39.53;21.42;;;;;;;4.83;66.71;100853.53;5049497;28;20428;-65
2021/12/29 07:09:39;;;;;;;31.55;18.55;;;;;;;4.70;67.21;100852.50;5049025;28;20867;-65
2021/12/29 07:12:07;;;;;;;35.53;19.70;;;;;;;4.76;67.11;100846.91;5049199;28;20404;-65
2021/12/29 07:14:37;;;;;;;38.47;21.70;;;;;;;4.79;67.27;100855.47;5031327;28;20412;-65
2021/12/29 07:17:05;;;;;;;36.03;20.60;;;;;;;4.66;67.19;100861.47;5049200;28;20432;-65
2021/12/29 07:19:31;;;;;;;38.92;21.23;;;;;;;4.68;67.51;100860.47;5049130;28;20404;-65
2021/12/29 07:22:00;;;;;;;48.08;24.58;;;;;;;4.82;67.02;100857.94;5049134;28;20413;-65
2021/12/29 07:24:27;;;;;;;45.55;20.40;;;;;;;4.61;67.59;100853.88;5049049;28;20503;-65
2021/12/29 07:26:55;;;;;;;47.28;20.48;;;;;;;4.45;68.15;100859.13;5050541;28;20421;-65
2021/12/29 07:29:22;;;;;;;47.67;21.05;;;;;;;4.57;68.00;100854.97;5053502;28;20491;-65
2021/12/29 07:31:49;;;;;;;53.67;24.50;;;;;;;4.64;67.76;100868.59;5052698;28;20404;-65
2021/12/29 07:34:16;;;;;;;50.47;24.50;;;;;;;4.90;67.44;100859.25;5053215;28;20419;-65
2021/12/29 07:36:43;;;;;;;47.58;23.85;;;;;;;5.01;66.67;100856.88;5052594;28;20524;-65
2021/12/29 07:39:11;;;;;;;43.05;21.65;;;;;;;4.92;66.41;100858.22;5052460;28;20434;-65
2021/12/29 07:41:39;;;;;;;40.97;20.97;;;;;;;4.87;66.63;100849.78;5052510;28;20408;-65
2021/12/29 07:44:08;;;;;;;44.80;23.42;;;;;;;4.94;66.81;100856.38;5052469;28;20400;-65
2021/12/29 07:46:35;;;;;;;39.70;23.77;;;;;;;4.91;66.76;100850.47;5052322;28;20930;-65
2021/12/29 07:49:03;;;;;;;37.63;21.37;;;;;;;4.91;66.78;100853.94;5052682;28;20412;-65
2021/12/29 07:51:30;;;;;;;37.05;24.20;;;;;;;4.95;66.43;100854.63;5052341;28;20790;-64
2021/12/29 07:53:58;;;;;;;44.33;25.03;;;;;;;4.94;66.68;100852.91;5052219;28;20914;-66
2021/12/29 07:56:25;;;;;;;36.25;21.80;;;;;;;5.07;65.84;100853.03;5052431;28;20428;-65
2021/12/29 07:58:52;;;;;;;32.40;19.40;;;;;;;5.08;65.68;100860.00;5052534;28;20531;-65
2021/12/29 08:01:21;;;;;;;31.17;19.02;;;;;;;5.13;65.75;100850.94;5052191;28;20412;-65
2021/12/29 08:03:47;;;;;;;31.25;18.95;;;;;;;5.04;66.12;100851.44;5052261;28;20408;-65
2021/12/29 08:06:16;;;;;;;24.65;15.98;;;;;;;5.23;65.44;100851.22;5052318;28;20412;-65
2021/12/29 08:08:44;;;;;;;27.08;18.55;;;;;;;5.30;64.93;100855.19;5052077;28;20922;-65
2021/12/29 08:11:11;;;;;;;32.78;22.33;;;;;;;5.52;64.27;100852.13;5051982;28;20806;-66
2021/12/29 08:13:38;;;;;;;35.03;23.08;;;;;;;5.80;63.06;100847.88;5052168;28;20488;-65
2021/12/29 08:16:06;;;;;;;48.38;26.40;;;;;;;5.80;63.03;100845.22;5051853;28;20925;-65
2021/12/29 08:18:35;;;;;;;41.75;24.45;;;;;;;5.88;62.85;100850.88;5052248;28;20412;-65
2021/12/29 08:21:02;;;;;;;46.13;25.08;;;;;;;6.17;61.79;100858.78;5051794;28;20400;-65
2021/12/29 08:23:29;;;;;;;34.70;21.23;;;;;;;6.12;61.83;100853.78;5051964;28;20419;-66
2021/12/29 08:25:56;;;;;;;31.48;19.70;;;;;;;6.32;61.62;100854.34;5051618;28;20412;-65
2021/12/29 08:28:23;;;;;;;32.97;20.67;;;;;;;6.31;61.54;100856.13;5051908;28;20415;-65
2021/12/29 08:30:51;;;;;;;23.15;15.75;;;;;;;6.18;62.04;100856.06;5051858;28;20419;-65
2021/12/29 08:33:18;;;;;;;27.30;18.13;;;;;;;5.95;62.24;100860.09;5051926;28;20478;-66
2021/12/29 08:35:46;;;;;;;26.58;17.65;;;;;;;6.04;62.23;100850.78;5051880;28;20423;-67
2021/12/29 08:38:13;;;;;;;21.27;16.05;;;;;;;6.17;62.06;100853.53;5051134;28;20436;-66
2021/12/29 08:40:40;;;;;;;24.38;17.65;;;;;;;6.40;61.37;100858.16;5051523;28;20859;-66
2021/12/29 08:43:07;;;;;;;23.98;17.25;;;;;;;6.36;60.94;100855.84;5051382;28;20933;-66
2021/12/29 08:45:37;;;;;;;27.10;19.55;;;;;;;6.55;60.41;100848.47;5051390;28;20948;-66
2021/12/29 08:48:05;;;;;;;20.45;16.60;;;;;;;6.49;60.28;100856.75;5051631;28;20439;-66
2021/12/29 08:50:33;;;;;;;24.45;18.27;;;;;;;6.43;61.14;100846.63;5051336;28;20448;-66
2021/12/29 08:53:04;;;;;;;17.58;13.10;;;;;;;6.65;59.71;100854.00;5033822;28;20423;-67
2021/12/29 08:55:32;;;;;;;18.08;14.15;;;;;;;6.51;59.56;100848.75;5051482;28;20405;-66
2021/12/29 08:57:59;;;;;;;27.48;23.25;;;;;;;6.16;61.47;100844.78;5051274;28;20432;-67
2021/12/29 09:00:26;;;;;;;15.63;11.55;;;;;;;5.93;62.07;100840.06;5051214;28;20500;-67
2021/12/29 09:02:53;;;;;;;19.70;14.30;;;;;;;5.88;62.31;100839.47;5050969;28;20929;-67
2021/12/29 09:05:20;;;;;;;17.00;13.18;;;;;;;5.82;62.67;100841.56;5051041;28;20413;-66
2021/12/29 09:07:48;;;;;;;15.82;11.98;;;;;;;5.72;62.31;100848.31;5050485;28;20511;-67
2021/12/29 09:10:20;;;;;;;14.77;11.65;;;;;;;5.52;63.19;100838.16;5049969;28;20499;-67
2021/12/29 09:12:49;;;;;;;19.60;13.85;;;;;;;5.55;63.46;100836.16;5050566;28;20413;-66
2021/12/29 09:15:16;;;;;;;20.08;14.50;;;;;;;5.44;63.82;100838.63;5051150;28;20474;-67
2021/12/29 09:17:44;;;;;;;23.67;16.45;;;;;;;5.41;63.79;100836.16;5050681;28;20432;-66
2021/12/29 09:20:15;;;;;;;24.03;16.57;;;;;;;5.59;63.55;100837.69;5051078;28;20420;-67
2021/12/29 09:22:42;;;;;;;20.83;16.65;;;;;;;5.79;62.77;100839.09;5050554;28;20419;-66
2021/12/29 09:25:10;;;;;;;28.15;18.70;;;;;;;5.72;63.48;100837.81;5050833;28;20491;-66
2021/12/29 09:27:38;;;;;;;17.70;11.95;;;;;;;5.74;63.03;100835.94;5050508;28;20417;-66
2021/12/29 09:30:06;;;;;;;16.27;12.02;;;;;;;5.61;63.25;100830.56;5050431;28;20908;-66
2021/12/29 09:32:33;;;;;;;13.15;9.75;;;;;;;5.66;62.72;100832.91;5050457;28;20493;-66
2021/12/29 09:35:01;;;;;;;13.98;10.77;;;;;;;5.57;63.27;100838.72;5050011;28;20495;-66
2021/12/29 09:37:30;;;;;;;14.63;11.13;;;;;;;5.59;62.89;100836.84;5050392;28;20518;-66
2021/12/29 09:39:57;;;;;;;16.33;13.07;;;;;;;5.63;63.07;100833.09;5050588;28;20419;-67
2021/12/29 09:42:24;;;;;;;18.27;13.07;;;;;;;5.61;63.38;100834.97;5050639;28;20483;-66
2021/12/29 09:44:53;;;;;;;17.33;12.23;;;;;;;5.61;62.95;100840.22;5050066;28;20414;-66
2021/12/29 09:47:21;;;;;;;17.52;13.68;;;;;;;5.23;64.34;100827.56;5050388;28;20439;-66
2021/12/29 09:49:48;;;;;;;16.83;12.38;;;;;;;5.26;64.01;100822.16;5049640;28;20424;-66
2021/12/29 09:52:15;;;;;;;15.03;11.40;;;;;;;5.37;63.87;100824.13;5049920;28;21000;-65
2021/12/29 09:54:42;;;;;;;17.98;13.05;;;;;;;5.45;63.79;100821.91;5050062;28;20935;-66
2021/12/29 09:57:09;;;;;;;18.10;12.45;;;;;;;5.31;64.09;100817.50;5049880;28;20877;-66
2021/12/29 09:59:36;;;;;;;19.10;12.60;;;;;;;5.63;63.73;100810.28;5050134;28;20412;-66
2021/12/29 10:02:05;;;;;;;21.83;14.52;;;;;;;5.70;62.87;100813.41;5050243;28;20474;-67
2021/12/29 10:04:36;;;;;;;23.30;16.48;;;;;;;5.82;62.60;100817.06;5050293;28;20487;-67
2021/12/29 10:07:12;;;;;;;20.65;14.90;;;;;;;5.90;62.07;100817.44;5049879;28;20969;-66
2021/12/29 10:09:39;;;;;;;18.15;13.00;;;;;;;5.84;62.47;100817.81;5049816;28;20916;-66
2021/12/29 10:12:09;;;;;;;18.38;14.23;;;;;;;5.95;61.85;100818.00;5064973;28;20419;-65
2021/12/29 10:14:36;;;;;;;15.38;11.35;;;;;;;5.75;62.54;100807.84;5050006;28;20467;-65
2021/12/29 10:17:11;;;;;;;18.80;14.38;;;;;;;6.06;62.06;100814.72;5049536;28;20515;-65
2021/12/29 10:19:38;;;;;;;45.83;29.50;;;;;;;6.05;61.93;100810.41;5049994;28;20424;-65
2021/12/29 10:22:05;;;;;;;41.33;31.25;;;;;;;6.01;61.98;100811.53;5049503;28;20499;-65
2021/12/29 10:24:32;;;;;;;24.03;19.70;;;;;;;6.02;61.68;100813.22;5049471;28;20981;-65
2021/12/29 10:26:59;;;;;;;17.85;13.93;;;;;;;5.79;62.34;100811.97;5049906;28;20492;-65
2021/12/29 10:29:29;;;;;;;22.23;18.27;;;;;;;5.85;62.54;100808.97;5049550;28;20922;-65
2021/12/29 10:32:01;;;;;;;20.67;16.90;;;;;;;5.71;62.87;100787.94;5049422;28;20854;-65
2021/12/29 10:34:30;;;;;;;16.15;12.23;;;;;;;5.86;62.33;100794.03;5049448;28;20408;-65
2021/12/29 10:37:00;;;;;;;17.02;13.05;;;;;;;6.18;61.45;100795.56;5031712;28;20473;-65
2021/12/29 10:39:30;;;;;;;15.63;12.52;;;;;;;6.24;60.46;100790.84;5049596;28;20492;-65
2021/12/29 10:41:59;;;;;;;15.60;12.15;;;;;;;6.37;60.75;100784.69;5049252;28;20795;-65
2021/12/29 10:44:29;;;;;;;14.82;12.43;;;;;;;6.31;60.51;100784.25;5049119;28;20851;-65
2021/12/29 10:46:58;;;;;;;18.85;14.25;;;;;;;6.40;60.61;100778.38;5049199;28;20416;-65
2021/12/29 10:49:27;;;;;;;19.60;14.93;;;;;;;6.30;61.09;100777.28;5049086;28;20412;-65
2021/12/29 10:51:56;;;;;;;22.90;18.33;;;;;;;6.72;60.20;100776.28;5049395;28;20451;-65
2021/12/29 10:54:25;;;;;;;18.00;14.93;;;;;;;6.78;59.49;100769.78;5049065;28;20504;-65
2021/12/29 10:57:04;;;;;;;17.65;14.38;;;;;;;6.54;60.04;100764.34;5048958;28;20470;-65
2021/12/29 10:59:34;;;;;;;18.95;16.05;;;;;;;6.60;59.44;100774.47;5049311;28;20409;-65
2021/12/29 11:02:02;;;;;;;18.80;15.60;;;;;;;6.81;59.48;100765.16;5052906;28;20416;-65
2021/12/29 11:04:29;;;;;;;20.20;16.63;;;;;;;7.16;58.77;100763.75;5055954;28;20416;-65
2021/12/29 11:07:01;;;;;;;13.55;11.38;;;;;;;7.12;57.98;100763.09;5055390;28;20988;-66
2021/12/29 11:09:31;;;;;;;16.73;14.65;;;;;;;7.53;56.25;100761.22;5055515;28;20936;-66
2021/12/29 11:11:58;;;;;;;18.17;15.13;;;;;;;7.38;56.88;100755.19;5055464;28;20413;-65
2021/12/29 11:14:27;;;;;;;16.35;14.43;;;;;;;7.37;57.24;100756.16;5055383;28;20503;-65
2021/12/29 11:17:03;;;;;;;16.15;13.38;;;;;;;7.35;56.95;100756.25;5055617;28;20404;-65
2021/12/29 11:19:30;;;;;;;18.75;14.60;;;;;;;7.32;56.95;100760.88;5055325;28;20787;-65
2021/12/29 11:22:11;;;;;;;17.10;13.77;;;;;;;7.02;57.54;100762.03;5055576;28;20423;-66
2021/12/29 11:24:39;;;;;;;17.80;14.95;;;;;;;7.13;57.23;100753.41;5055554;28;20405;-65